Killarney, FL (34740)

2:54 PM EDT on October 24, 2014 (GMT -0400)
Oakland Pointe | Change Station
CLOSE
Current Station
Personal Weather Station
Location: Oakland, FL
Elevation: 92 ft
Nearby Weather Stations

Elev 92 ft 28.56 °N, 81.63 °W | Updated 5 seconds ago

Mostly Cloudy
Mostly Cloudy
80.2 °F
Feels Like 83 °F
N
4.8
Wind Variable Wind from NE
Gusts 7.5 mph

Today
High -- | Low -- °F
--% Chance of Precip.
Yesterday
High -- | Low -- °F
Precip. -- in
7:33 AM 6:48 PM
New Moon, 1% visible
Pressure 29.97 in
Visibility 10.0 miles
Clouds Mostly Cloudy 4800 ft
Heat Index 83 °F
Dew Point 67 °F
Humidity 64%
Rainfall 0.00 in
Snow Depth Not available.
UV 5 out of 12
Pollen 5.70 out of 12
Ozone Good
PM2.5 Good
Flu Activity Local Activity
METAR KORL 241753Z 05008G19KT 10SM BKN048 26/15 A2996 RMK AO2 SLP147 T02560150 10272 20183 58016

More Conditions Fewer Conditions

Pressure 29.97 in
Visibility 10.0 miles
Clouds Mostly Cloudy 4800 ft
Heat Index 83 °F
Dew Point 67 °F
Humidity 64%
Rainfall 0.00 in
Snow Depth Not available.
UV 5 out of 12
Pollen 5.70 out of 12
Ozone Good
PM2.5 Good
Flu Activity Local Activity
METAR KORL 241753Z 05008G19KT 10SM BKN048 26/15 A2996 RMK AO2 SLP147 T02560150 10272 20183 58016

More Conditions Fewer Conditions

10-Day Weather Forecast

Almanac

Astronomy

Oct. 24, 2014 Rise Set
Actual Time 7:33 AM EDT 6:48 PM EDT
Civil Twilight 7:08 AM EDT 7:12 PM EDT
Nautical Twilight 6:41 AM EDT 7:39 PM EDT
Astronomical Twilight 6:13 AM EDT 8:07 PM EDT
Moon 8:08 AM EDT 7:31 PM EDT
Length of Visible Light 12h 03m
Length of Day
11h 15m
Tomorrow will be 1m 34s shorter.
New Moon, 1% of the Moon is Illuminated
Today
New Moon
Oct 30
First Quarter
Nov 6
Full
Nov 14
Last Quarter
Nov 22
New

Today's Extremes

State Highs State Lows

Community

WunderPhotos

Upload Photos

1,764,634 photos uploaded!

Nearby

Air Quality

  Air Quality AQ Index Pollutant
Yesterday Good
OZONE
Yesterday Good
PM2.5
Current Good
OZONE
Current Good
PM2.5
Friday Good
OZONE

Snow Depth

Station Depth Elevation
No new snow has been reported.

Earthquake Activity

City Distance Mag. Time & Date
No recent earthquake activity has been reported nearby.
Minimum magnitude displayed is 2.5.

Coastal Water Temperatures

Place Temperature
No Stations Reporting

Nearby Weather Stations